sensor_id;sensor_type;location;lat;lon;timestamp;pressure;altitude;pressure_sealevel;temperature;humidity
13047;BME280;6590;42.660;27.712;2022-07-29T00:00:39;70581.53;;;22.85;100.00
13047;BME280;6590;42.660;27.712;2022-07-29T00:03:07;70581.53;;;22.85;100.00
13047;BME280;6590;42.660;27.712;2022-07-29T00:05:38;70574.25;;;22.76;100.00
13047;BME280;6590;42.660;27.712;2022-07-29T00:08:07;70574.25;;;22.76;100.00
13047;BME280;6590;42.660;27.712;2022-07-29T00:10:34;70574.25;;;22.76;100.00
13047;BME280;6590;42.660;27.712;2022-07-29T00:13:02;70574.25;;;22.76;100.00
13047;BME280;6590;42.660;27.712;2022-07-29T00:15:29;70574.25;;;22.76;100.00
13047;BME280;6590;42.660;27.712;2022-07-29T00:17:56;70574.25;;;22.76;100.00
13047;BME280;6590;42.660;27.712;2022-07-29T00:20:24;70574.25;;;22.76;100.00
13047;BME280;6590;42.660;27.712;2022-07-29T00:22:51;70574.25;;;22.76;100.00
13047;BME280;6590;42.660;27.712;2022-07-29T00:25:19;70551.91;;;22.57;100.00
13047;BME280;6590;42.660;27.712;2022-07-29T00:27:46;70538.19;;;22.50;100.00
13047;BME280;6590;42.660;27.712;2022-07-29T00:30:13;70538.19;;;22.50;100.00
13047;BME280;6590;42.660;27.712;2022-07-29T00:32:40;70538.19;;;22.50;100.00
13047;BME280;6590;42.660;27.712;2022-07-29T00:35:08;70538.19;;;22.50;100.00
13047;BME280;6590;42.660;27.712;2022-07-29T00:37:54;70510.91;;;22.25;100.00
13047;BME280;6590;42.660;27.712;2022-07-29T00:40:24;70510.91;;;22.25;100.00
13047;BME280;6590;42.660;27.712;2022-07-29T00:42:52;70510.91;;;22.25;100.00
13047;BME280;6590;42.660;27.712;2022-07-29T00:45:19;70510.91;;;22.25;100.00
13047;BME280;6590;42.660;27.712;2022-07-29T00:47:47;70510.91;;;22.25;100.00
13047;BME280;6590;42.660;27.712;2022-07-29T00:50:14;70510.91;;;22.25;100.00
13047;BME280;6590;42.660;27.712;2022-07-29T00:52:42;70510.91;;;22.25;100.00
13047;BME280;6590;42.660;27.712;2022-07-29T00:55:13;70510.91;;;22.25;100.00
13047;BME280;6590;42.660;27.712;2022-07-29T00:57:42;70510.91;;;22.25;100.00
13047;BME280;6590;42.660;27.712;2022-07-29T01:00:13;70464.41;;;21.86;100.00
13047;BME280;6590;42.660;27.712;2022-07-29T01:02:42;70464.41;;;21.86;100.00
13047;BME280;6590;42.660;27.712;2022-07-29T01:05:10;70464.41;;;21.86;100.00
13047;BME280;6590;42.660;27.712;2022-07-29T01:07:39;70464.41;;;21.86;100.00
13047;BME280;6590;42.660;27.712;2022-07-29T01:10:09;70464.41;;;21.86;100.00
13047;BME280;6590;42.660;27.712;2022-07-29T01:12:37;70464.41;;;21.86;100.00
13047;BME280;6590;42.660;27.712;2022-07-29T01:15:06;70464.41;;;21.86;100.00
13047;BME280;6590;42.660;27.712;2022-07-29T01:17:37;70464.41;;;21.86;100.00
13047;BME280;6590;42.660;27.712;2022-07-29T01:20:12;70464.41;;;21.86;100.00
13047;BME280;6590;42.660;27.712;2022-07-29T01:25:58;70464.41;;;21.86;100.00
13047;BME280;6590;42.660;27.712;2022-07-29T01:31:45;70464.41;;;21.86;100.00
13047;BME280;6590;42.660;27.712;2022-07-29T01:34:19;70464.41;;;21.86;100.00
13047;BME280;6590;42.660;27.712;2022-07-29T01:36:50;70464.41;;;21.86;100.00
13047;BME280;6590;42.660;27.712;2022-07-29T01:39:21;70464.41;;;21.86;100.00
13047;BME280;6590;42.660;27.712;2022-07-29T01:41:59;70464.41;;;21.86;100.00
13047;BME280;6590;42.660;27.712;2022-07-29T01:44:31;70464.41;;;21.86;100.00
13047;BME280;6590;42.660;27.712;2022-07-29T01:47:05;70464.41;;;21.86;100.00
13047;BME280;6590;42.660;27.712;2022-07-29T01:49:36;70464.41;;;21.86;100.00
13047;BME280;6590;42.660;27.712;2022-07-29T01:52:12;70464.41;;;21.86;100.00
13047;BME280;6590;42.660;27.712;2022-07-29T01:54:43;70464.41;;;21.86;100.00
13047;BME280;6590;42.660;27.712;2022-07-29T01:57:13;70464.41;;;21.86;100.00
13047;BME280;6590;42.660;27.712;2022-07-29T01:59:41;70464.41;;;21.86;100.00
13047;BME280;6590;42.660;27.712;2022-07-29T02:02:13;70464.41;;;21.86;100.00
13047;BME280;6590;42.660;27.712;2022-07-29T02:04:41;70464.41;;;21.86;100.00
13047;BME280;6590;42.660;27.712;2022-07-29T02:07:13;70464.41;;;21.86;100.00
13047;BME280;6590;42.660;27.712;2022-07-29T02:09:42;70425.00;;;21.52;100.00
13047;BME280;6590;42.660;27.712;2022-07-29T02:12:10;70425.00;;;21.52;100.00
13047;BME280;6590;42.660;27.712;2022-07-29T02:14:42;70422.88;;;21.53;100.00
13047;BME280;6590;42.660;27.712;2022-07-29T02:17:12;70422.88;;;21.53;100.00
13047;BME280;6590;42.660;27.712;2022-07-29T02:19:43;70422.88;;;21.53;100.00
13047;BME280;6590;42.660;27.712;2022-07-29T02:22:12;70422.88;;;21.53;100.00
13047;BME280;6590;42.660;27.712;2022-07-29T02:24:41;70436.78;;;21.62;100.00
13047;BME280;6590;42.660;27.712;2022-07-29T02:27:09;70436.78;;;21.62;100.00
13047;BME280;6590;42.660;27.712;2022-07-29T02:29:39;70442.06;;;21.67;100.00
13047;BME280;6590;42.660;27.712;2022-07-29T02:32:08;70442.06;;;21.67;100.00
13047;BME280;6590;42.660;27.712;2022-07-29T02:34:39;70442.06;;;21.67;100.00
13047;BME280;6590;42.660;27.712;2022-07-29T02:37:09;70442.06;;;21.67;100.00
13047;BME280;6590;42.660;27.712;2022-07-29T02:39:37;70442.06;;;21.67;100.00
13047;BME280;6590;42.660;27.712;2022-07-29T02:42:09;70442.06;;;21.67;100.00
13047;BME280;6590;42.660;27.712;2022-07-29T02:44:36;70442.06;;;21.67;100.00
13047;BME280;6590;42.660;27.712;2022-07-29T02:47:09;70442.06;;;21.67;100.00
13047;BME280;6590;42.660;27.712;2022-07-29T02:49:42;70442.06;;;21.67;100.00
13047;BME280;6590;42.660;27.712;2022-07-29T02:52:19;70442.06;;;21.67;100.00
13047;BME280;6590;42.660;27.712;2022-07-29T02:54:53;70442.06;;;21.67;100.00
13047;BME280;6590;42.660;27.712;2022-07-29T02:57:25;70442.06;;;21.67;100.00
13047;BME280;6590;42.660;27.712;2022-07-29T02:59:57;70442.06;;;21.67;100.00
13047;BME280;6590;42.660;27.712;2022-07-29T03:02:25;70442.06;;;21.67;100.00
13047;BME280;6590;42.660;27.712;2022-07-29T03:04:55;70442.06;;;21.67;100.00
13047;BME280;6590;42.660;27.712;2022-07-29T03:07:24;70442.06;;;21.67;100.00
13047;BME280;6590;42.660;27.712;2022-07-29T03:09:52;70442.06;;;21.67;100.00
13047;BME280;6590;42.660;27.712;2022-07-29T03:12:20;70480.66;;;21.97;100.00
13047;BME280;6590;42.660;27.712;2022-07-29T03:14:47;70480.66;;;21.97;100.00
13047;BME280;6590;42.660;27.712;2022-07-29T03:17:15;70480.66;;;21.97;100.00
13047;BME280;6590;42.660;27.712;2022-07-29T03:19:42;70480.66;;;21.97;100.00
13047;BME280;6590;42.660;27.712;2022-07-29T03:22:11;70480.66;;;21.97;100.00
13047;BME280;6590;42.660;27.712;2022-07-29T03:24:38;70480.66;;;21.97;100.00
13047;BME280;6590;42.660;27.712;2022-07-29T03:27:05;70480.66;;;21.97;100.00
13047;BME280;6590;42.660;27.712;2022-07-29T03:29:32;70480.66;;;21.97;100.00
13047;BME280;6590;42.660;27.712;2022-07-29T03:32:01;70480.66;;;21.97;100.00
13047;BME280;6590;42.660;27.712;2022-07-29T03:34:29;70501.25;;;22.14;100.00
13047;BME280;6590;42.660;27.712;2022-07-29T03:36:56;70496.78;;;22.13;100.00
13047;BME280;6590;42.660;27.712;2022-07-29T03:39:26;70496.78;;;22.13;100.00
13047;BME280;6590;42.660;27.712;2022-07-29T03:41:56;70496.78;;;22.13;100.00
13047;BME280;6590;42.660;27.712;2022-07-29T03:44:26;70496.78;;;22.13;100.00
13047;BME280;6590;42.660;27.712;2022-07-29T03:46:55;70496.78;;;22.13;100.00
13047;BME280;6590;42.660;27.712;2022-07-29T03:49:25;70496.78;;;22.13;100.00
13047;BME280;6590;42.660;27.712;2022-07-29T03:51:53;70496.78;;;22.13;100.00
13047;BME280;6590;42.660;27.712;2022-07-29T03:54:20;70496.78;;;22.13;100.00
13047;BME280;6590;42.660;27.712;2022-07-29T03:56:52;70496.78;;;22.13;100.00
13047;BME280;6590;42.660;27.712;2022-07-29T03:59:21;70496.78;;;22.13;100.00
13047;BME280;6590;42.660;27.712;2022-07-29T04:01:49;70496.78;;;22.13;100.00
13047;BME280;6590;42.660;27.712;2022-07-29T04:04:16;70496.78;;;22.13;100.00
13047;BME280;6590;42.660;27.712;2022-07-29T04:06:44;70496.78;;;22.13;100.00
13047;BME280;6590;42.660;27.712;2022-07-29T04:09:12;70496.78;;;22.13;100.00
13047;BME280;6590;42.660;27.712;2022-07-29T04:11:40;70496.78;;;22.13;100.00
13047;BME280;6590;42.660;27.712;2022-07-29T04:14:09;70496.78;;;22.13;100.00
13047;BME280;6590;42.660;27.712;2022-07-29T04:16:36;70574.75;;;22.88;100.00
13047;BME280;6590;42.660;27.712;2022-07-29T04:19:03;70574.75;;;22.88;100.00
13047;BME280;6590;42.660;27.712;2022-07-29T04:21:30;70574.75;;;22.88;100.00
13047;BME280;6590;42.660;27.712;2022-07-29T04:23:57;70574.75;;;22.88;100.00
13047;BME280;6590;42.660;27.712;2022-07-29T04:26:24;70574.75;;;22.88;100.00
13047;BME280;6590;42.660;27.712;2022-07-29T04:28:51;70574.75;;;22.88;100.00
13047;BME280;6590;42.660;27.712;2022-07-29T04:31:19;70574.75;;;22.88;100.00
13047;BME280;6590;42.660;27.712;2022-07-29T04:33:46;70574.75;;;22.88;100.00
13047;BME280;6590;42.660;27.712;2022-07-29T04:36:13;70574.75;;;22.88;100.00
13047;BME280;6590;42.660;27.712;2022-07-29T04:38:40;70574.75;;;22.88;100.00
13047;BME280;6590;42.660;27.712;2022-07-29T04:41:08;70574.75;;;22.88;100.00
13047;BME280;6590;42.660;27.712;2022-07-29T04:43:35;70574.75;;;22.88;100.00
13047;BME280;6590;42.660;27.712;2022-07-29T04:46:02;70574.75;;;22.88;100.00
13047;BME280;6590;42.660;27.712;2022-07-29T04:48:31;70574.75;;;22.88;100.00
13047;BME280;6590;42.660;27.712;2022-07-29T04:50:58;70574.75;;;22.88;100.00
13047;BME280;6590;42.660;27.712;2022-07-29T04:53:26;70574.75;;;22.88;100.00
13047;BME280;6590;42.660;27.712;2022-07-29T04:55:52;70574.75;;;22.88;100.00
13047;BME280;6590;42.660;27.712;2022-07-29T04:58:19;70574.75;;;22.88;100.00
13047;BME280;6590;42.660;27.712;2022-07-29T05:00:48;70574.75;;;22.88;100.00
13047;BME280;6590;42.660;27.712;2022-07-29T05:03:15;70574.75;;;22.88;100.00
13047;BME280;6590;42.660;27.712;2022-07-29T05:05:43;70574.75;;;22.88;100.00
13047;BME280;6590;42.660;27.712;2022-07-29T05:08:10;70574.75;;;22.88;100.00
13047;BME280;6590;42.660;27.712;2022-07-29T05:10:37;70574.75;;;22.88;100.00
13047;BME280;6590;42.660;27.712;2022-07-29T05:13:05;70574.75;;;22.88;100.00
13047;BME280;6590;42.660;27.712;2022-07-29T05:15:33;70574.75;;;22.88;100.00
13047;BME280;6590;42.660;27.712;2022-07-29T05:18:00;70574.75;;;22.88;100.00
13047;BME280;6590;42.660;27.712;2022-07-29T05:20:27;70574.75;;;22.88;100.00
13047;BME280;6590;42.660;27.712;2022-07-29T05:22:57;70574.75;;;22.88;100.00
13047;BME280;6590;42.660;27.712;2022-07-29T05:25:24;70574.75;;;22.88;100.00
13047;BME280;6590;42.660;27.712;2022-07-29T05:27:52;70574.75;;;22.88;100.00
13047;BME280;6590;42.660;27.712;2022-07-29T05:30:19;70574.75;;;22.88;100.00
13047;BME280;6590;42.660;27.712;2022-07-29T05:32:46;70574.75;;;22.88;100.00
13047;BME280;6590;42.660;27.712;2022-07-29T05:35:14;70574.75;;;22.88;100.00
13047;BME280;6590;42.660;27.712;2022-07-29T05:37:41;70574.75;;;22.88;100.00
13047;BME280;6590;42.660;27.712;2022-07-29T05:40:10;70574.75;;;22.88;100.00
13047;BME280;6590;42.660;27.712;2022-07-29T05:42:37;70574.75;;;22.88;100.00
13047;BME280;6590;42.660;27.712;2022-07-29T05:45:08;71336.81;;;29.23;100.00
13047;BME280;6590;42.660;27.712;2022-07-29T05:47:35;71375.94;;;29.63;100.00
13047;BME280;6590;42.660;27.712;2022-07-29T05:50:03;71399.03;;;29.75;100.00
13047;BME280;6590;42.660;27.712;2022-07-29T05:52:30;71382.69;;;29.71;100.00
13047;BME280;6590;42.660;27.712;2022-07-29T05:54:57;71360.72;;;29.45;100.00
13047;BME280;6590;42.660;27.712;2022-07-29T05:57:28;71364.91;;;29.56;100.00
13047;BME280;6590;42.660;27.712;2022-07-29T05:59:55;71369.06;;;29.59;100.00
13047;BME280;6590;42.660;27.712;2022-07-29T06:02:22;71374.75;;;29.55;100.00
13047;BME280;6590;42.660;27.712;2022-07-29T06:04:49;71379.91;;;29.64;100.00
13047;BME280;6590;42.660;27.712;2022-07-29T06:07:16;71392.50;;;29.70;100.00
13047;BME280;6590;42.660;27.712;2022-07-29T06:09:43;71388.41;;;29.73;100.00
13047;BME280;6590;42.660;27.712;2022-07-29T06:12:10;71400.22;;;29.83;93.90
13047;BME280;6590;42.660;27.712;2022-07-29T06:14:48;71398.44;;;29.82;95.96
13047;BME280;6590;42.660;27.712;2022-07-29T06:17:16;71395.13;;;29.81;96.58
13047;BME280;6590;42.660;27.712;2022-07-29T06:19:43;71368.84;;;29.57;92.25
13047;BME280;6590;42.660;27.712;2022-07-29T06:22:10;71333.50;;;29.22;97.24
13047;BME280;6590;42.660;27.712;2022-07-29T06:24:37;71303.69;;;28.95;100.00
13047;BME280;6590;42.660;27.712;2022-07-29T06:27:07;71285.75;;;28.84;100.00
13047;BME280;6590;42.660;27.712;2022-07-29T06:29:35;71277.25;;;28.75;100.00
13047;BME280;6590;42.660;27.712;2022-07-29T06:32:04;71265.41;;;28.65;100.00
13047;BME280;6590;42.660;27.712;2022-07-29T06:34:31;71255.34;;;28.56;100.00
13047;BME280;6590;42.660;27.712;2022-07-29T06:36:58;71274.69;;;28.77;100.00
13047;BME280;6590;42.660;27.712;2022-07-29T06:39:25;71290.72;;;28.91;100.00
13047;BME280;6590;42.660;27.712;2022-07-29T06:41:52;71302.69;;;28.96;100.00
13047;BME280;6590;42.660;27.712;2022-07-29T06:44:19;71302.53;;;29.01;100.00
13047;BME280;6590;42.660;27.712;2022-07-29T06:46:46;71307.47;;;29.00;100.00
13047;BME280;6590;42.660;27.712;2022-07-29T06:49:16;71313.75;;;29.03;100.00
13047;BME280;6590;42.660;27.712;2022-07-29T06:51:43;71310.06;;;29.12;97.40
13047;BME280;6590;42.660;27.712;2022-07-29T06:54:10;71328.75;;;29.18;99.09
13047;BME280;6590;42.660;27.712;2022-07-29T06:56:37;71332.09;;;29.19;100.00
13047;BME280;6590;42.660;27.712;2022-07-29T06:59:08;71337.84;;;29.28;97.79
13047;BME280;6590;42.660;27.712;2022-07-29T07:01:35;71336.44;;;29.25;99.95
13047;BME280;6590;42.660;27.712;2022-07-29T07:04:03;71332.72;;;29.26;98.88
13047;BME280;6590;42.660;27.712;2022-07-29T07:06:32;71346.69;;;29.29;100.00
13047;BME280;6590;42.660;27.712;2022-07-29T07:08:59;71344.13;;;29.31;95.56
13047;BME280;6590;42.660;27.712;2022-07-29T07:11:26;71350.88;;;29.39;94.31
13047;BME280;6590;42.660;27.712;2022-07-29T07:13:58;71345.94;;;29.40;95.32
13047;BME280;6590;42.660;27.712;2022-07-29T07:16:35;71335.31;;;29.31;94.65
13047;BME280;6590;42.660;27.712;2022-07-29T07:19:03;71345.91;;;29.33;97.14
13047;BME280;6590;42.660;27.712;2022-07-29T07:21:32;71330.94;;;29.25;97.29
13047;BME280;6590;42.660;27.712;2022-07-29T07:24:13;71330.69;;;29.15;97.91
13047;BME280;6590;42.660;27.712;2022-07-29T07:26:42;71342.19;;;29.34;96.51
13047;BME280;6590;42.660;27.712;2022-07-29T07:29:20;71353.63;;;29.39;92.95
13047;BME280;6590;42.660;27.712;2022-07-29T07:32:05;71339.41;;;29.27;94.74
13047;BME280;6590;42.660;27.712;2022-07-29T07:35:38;71349.47;;;29.36;97.65
13047;BME280;6590;42.660;27.712;2022-07-29T07:37:58;71350.47;;;29.41;86.84
13047;BME280;6590;42.660;27.712;2022-07-29T07:40:25;71369.03;;;29.52;84.84
13047;BME280;6590;42.660;27.712;2022-07-29T07:42:52;71360.75;;;29.52;83.17
13047;BME280;6590;42.660;27.712;2022-07-29T07:45:19;71388.34;;;29.66;82.09
13047;BME280;6590;42.660;27.712;2022-07-29T07:47:46;71383.25;;;29.71;79.97
13047;BME280;6590;42.660;27.712;2022-07-29T07:50:14;71406.91;;;29.84;75.78
13047;BME280;6590;42.660;27.712;2022-07-29T07:52:47;71400.84;;;29.84;71.32
13047;BME280;6590;42.660;27.712;2022-07-29T07:55:16;71400.00;;;29.81;71.80
13047;BME280;6590;42.660;27.712;2022-07-29T07:57:44;71415.03;;;29.95;74.02
13047;BME280;6590;42.660;27.712;2022-07-29T08:00:13;71424.53;;;30.03;69.34
13047;BME280;6590;42.660;27.712;2022-07-29T08:02:44;71435.38;;;30.08;64.47
13047;BME280;6590;42.660;27.712;2022-07-29T08:05:13;71443.50;;;30.19;66.98
13047;BME280;6590;42.660;27.712;2022-07-29T08:07:43;71454.94;;;30.24;61.49
13047;BME280;6590;42.660;27.712;2022-07-29T08:10:11;71456.50;;;30.23;61.39
13047;BME280;6590;42.660;27.712;2022-07-29T08:12:45;71471.72;;;30.41;61.47
13047;BME280;6590;42.660;27.712;2022-07-29T08:15:12;71484.59;;;30.56;62.73
13047;BME280;6590;42.660;27.712;2022-07-29T08:17:39;71476.50;;;30.52;57.05
13047;BME280;6590;42.660;27.712;2022-07-29T08:20:07;71457.13;;;30.31;57.41
13047;BME280;6590;42.660;27.712;2022-07-29T08:22:34;71465.41;;;30.38;55.23
13047;BME280;6590;42.660;27.712;2022-07-29T08:25:01;71467.00;;;30.44;56.14
13047;BME280;6590;42.660;27.712;2022-07-29T08:27:28;71473.69;;;30.45;53.87
13047;BME280;6590;42.660;27.712;2022-07-29T08:29:57;71482.78;;;30.48;50.62
13047;BME280;6590;42.660;27.712;2022-07-29T08:32:24;71476.09;;;30.47;48.83
13047;BME280;6590;42.660;27.712;2022-07-29T08:34:55;71496.44;;;30.59;47.90
13047;BME280;6590;42.660;27.712;2022-07-29T08:37:22;71487.16;;;30.61;47.00
13047;BME280;6590;42.660;27.712;2022-07-29T08:39:49;71500.38;;;30.60;47.13
13047;BME280;6590;42.660;27.712;2022-07-29T08:42:45;71492.69;;;30.61;48.83
13047;BME280;6590;42.660;27.712;2022-07-29T08:45:28;71502.75;;;30.69;47.65
13047;BME280;6590;42.660;27.712;2022-07-29T08:47:59;71512.44;;;30.73;47.36
13047;BME280;6590;42.660;27.712;2022-07-29T08:50:27;71510.44;;;30.69;48.13
13047;BME280;6590;42.660;27.712;2022-07-29T08:52:57;71515.81;;;30.80;49.95
13047;BME280;6590;42.660;27.712;2022-07-29T08:55:24;71517.56;;;30.82;48.39
13047;BME280;6590;42.660;27.712;2022-07-29T08:57:52;71527.22;;;30.85;49.58
13047;BME280;6590;42.660;27.712;2022-07-29T09:00:22;71499.81;;;30.67;48.00
13047;BME280;6590;42.660;27.712;2022-07-29T09:02:56;71481.00;;;30.53;48.99
13047;BME280;6590;42.660;27.712;2022-07-29T09:05:24;71482.78;;;30.55;50.60
13047;BME280;6590;42.660;27.712;2022-07-29T09:07:56;71502.94;;;30.65;48.30
13047;BME280;6590;42.660;27.712;2022-07-29T09:10:24;71508.09;;;30.74;48.44
13047;BME280;6590;42.660;27.712;2022-07-29T09:12:51;71515.19;;;30.80;50.06
13047;BME280;6590;42.660;27.712;2022-07-29T09:15:19;71539.50;;;31.00;48.25
13047;BME280;6590;42.660;27.712;2022-07-29T09:17:48;71541.88;;;31.02;49.56
13047;BME280;6590;42.660;27.712;2022-07-29T09:20:20;71551.94;;;31.11;49.12
13047;BME280;6590;42.660;27.712;2022-07-29T09:23:07;71548.81;;;31.13;46.82
13047;BME280;6590;42.660;27.712;2022-07-29T09:25:35;71525.88;;;30.89;46.55
13047;BME280;6590;42.660;27.712;2022-07-29T09:28:07;71518.38;;;30.85;46.77
13047;BME280;6590;42.660;27.712;2022-07-29T09:30:34;71528.41;;;30.86;46.69
13047;BME280;6590;42.660;27.712;2022-07-29T09:33:02;71530.22;;;30.88;46.37
13047;BME280;6590;42.660;27.712;2022-07-29T09:35:31;71525.47;;;30.91;48.95
13047;BME280;6590;42.660;27.712;2022-07-29T09:38:09;71549.59;;;31.09;48.08
13047;BME280;6590;42.660;27.712;2022-07-29T09:40:37;71565.44;;;31.27;47.64
13047;BME280;6590;42.660;27.712;2022-07-29T09:43:10;71571.13;;;31.22;47.47
13047;BME280;6590;42.660;27.712;2022-07-29T09:45:43;71568.19;;;31.20;46.01
13047;BME280;6590;42.660;27.712;2022-07-29T09:48:20;71551.94;;;31.11;44.58
13047;BME280;6590;42.660;27.712;2022-07-29T09:50:50;71535.94;;;30.97;44.09
13047;BME280;6590;42.660;27.712;2022-07-29T09:53:31;71527.84;;;30.93;48.04
13047;BME280;6590;42.660;27.712;2022-07-29T09:55:59;71521.31;;;30.80;46.00
13047;BME280;6590;42.660;27.712;2022-07-29T09:58:26;71510.47;;;30.76;45.57
13047;BME280;6590;42.660;27.712;2022-07-29T10:00:55;71512.81;;;30.78;46.51
13047;BME280;6590;42.660;27.712;2022-07-29T10:03:23;71502.34;;;30.64;46.06
13047;BME280;6590;42.660;27.712;2022-07-29T10:06:06;71519.91;;;30.77;47.17
13047;BME280;6590;42.660;27.712;2022-07-29T10:08:34;71533.16;;;30.90;48.40
13047;BME280;6590;42.660;27.712;2022-07-29T10:11:28;71532.97;;;30.95;48.69
13047;BME280;6590;42.660;27.712;2022-07-29T10:13:55;71533.75;;;30.91;47.24
13047;BME280;6590;42.660;27.712;2022-07-29T10:16:23;71544.81;;;30.98;47.11
13047;BME280;6590;42.660;27.712;2022-07-29T10:18:52;71540.47;;;30.99;45.52
13047;BME280;6590;42.660;27.712;2022-07-29T10:21:25;71559.06;;;31.17;45.99
13047;BME280;6590;42.660;27.712;2022-07-29T10:23:54;71572.31;;;31.23;45.39
13047;BME280;6590;42.660;27.712;2022-07-29T10:26:29;71574.50;;;31.30;46.08
13047;BME280;6590;42.660;27.712;2022-07-29T10:29:01;71565.59;;;31.15;43.49
13047;BME280;6590;42.660;27.712;2022-07-29T10:31:36;71555.13;;;31.16;44.04
13047;BME280;6590;42.660;27.712;2022-07-29T10:34:16;71559.28;;;31.12;43.99
13047;BME280;6590;42.660;27.712;2022-07-29T10:37:11;71554.94;;;31.13;45.48
13047;BME280;6590;42.660;27.712;2022-07-29T10:39:57;71578.84;;;31.36;43.40
13047;BME280;6590;42.660;27.712;2022-07-29T10:42:54;71601.38;;;31.55;45.11
13047;BME280;6590;42.660;27.712;2022-07-29T10:46:17;71605.53;;;31.58;45.35
13047;BME280;6590;42.660;27.712;2022-07-29T10:49:09;71606.94;;;31.62;44.05
13047;BME280;6590;42.660;27.712;2022-07-29T10:51:58;71619.59;;;31.68;44.52
13047;BME280;6590;42.660;27.712;2022-07-29T10:54:46;71619.00;;;31.67;43.24
13047;BME280;6590;42.660;27.712;2022-07-29T10:57:18;71617.97;;;31.62;43.93
13047;BME280;6590;42.660;27.712;2022-07-29T10:59:48;71601.38;;;31.55;43.78
13047;BME280;6590;42.660;27.712;2022-07-29T11:02:41;71608.28;;;31.58;43.16
13047;BME280;6590;42.660;27.712;2022-07-29T11:05:11;71605.34;;;31.63;41.83
13047;BME280;6590;42.660;27.712;2022-07-29T11:08:18;71604.13;;;31.55;42.50
13047;BME280;6590;42.660;27.712;2022-07-29T11:14:01;71632.25;;;31.74;44.13
13047;BME280;6590;42.660;27.712;2022-07-29T11:16:58;71629.28;;;31.78;42.26
13047;BME280;6590;42.660;27.712;2022-07-29T11:19:31;71622.38;;;31.75;42.76
13047;BME280;6590;42.660;27.712;2022-07-29T11:22:02;71624.31;;;31.72;43.85
13047;BME280;6590;42.660;27.712;2022-07-29T11:24:31;71628.88;;;31.80;43.78
13047;BME280;6590;42.660;27.712;2022-07-29T11:27:13;71629.09;;;31.76;44.75
13047;BME280;6590;42.660;27.712;2022-07-29T11:29:50;71633.44;;;31.75;46.57
13047;BME280;6590;42.660;27.712;2022-07-29T11:32:17;71615.06;;;31.66;46.24
13047;BME280;6590;42.660;27.712;2022-07-29T11:34:47;71622.16;;;31.65;47.18
13047;BME280;6590;42.660;27.712;2022-07-29T11:37:21;71605.53;;;31.51;46.72
13047;BME280;6590;42.660;27.712;2022-07-29T11:40:09;71590.72;;;31.39;44.32
13047;BME280;6590;42.660;27.712;2022-07-29T11:42:46;71576.47;;;31.34;45.63
13047;BME280;6590;42.660;27.712;2022-07-29T11:45:16;71582.22;;;31.36;45.96
13047;BME280;6590;42.660;27.712;2022-07-29T11:47:49;71572.72;;;31.28;46.86
13047;BME280;6590;42.660;27.712;2022-07-29T11:50:18;71568.19;;;31.20;45.53
13047;BME280;6590;42.660;27.712;2022-07-29T11:52:53;71556.13;;;31.14;46.74
13047;BME280;6590;42.660;27.712;2022-07-29T11:55:22;71566.38;;;31.18;46.21
13047;BME280;6590;42.660;27.712;2022-07-29T11:57:51;71561.47;;;31.19;47.53
13047;BME280;6590;42.660;27.712;2022-07-29T12:00:25;71570.53;;;31.22;47.25
13047;BME280;6590;42.660;27.712;2022-07-29T12:02:52;71577.84;;;31.23;46.58
13047;BME280;6590;42.660;27.712;2022-07-29T12:05:20;71577.25;;;31.23;46.68
13047;BME280;6590;42.660;27.712;2022-07-29T12:07:47;71571.53;;;31.27;47.19
13047;BME280;6590;42.660;27.712;2022-07-29T12:10:15;71568.19;;;31.27;46.57
13047;BME280;6590;42.660;27.712;2022-07-29T12:12:50;71565.59;;;31.22;46.46
13047;BME280;6590;42.660;27.712;2022-07-29T12:15:18;71566.78;;;31.23;46.42
13047;BME280;6590;42.660;27.712;2022-07-29T12:17:46;71574.09;;;31.25;46.40
13047;BME280;6590;42.660;27.712;2022-07-29T12:20:22;71574.09;;;31.25;46.83
13047;BME280;6590;42.660;27.712;2022-07-29T12:22:49;71567.97;;;31.24;46.29
13047;BME280;6590;42.660;27.712;2022-07-29T12:25:16;71581.22;;;31.31;45.37
13047;BME280;6590;42.660;27.712;2022-07-29T12:27:45;71576.88;;;31.32;46.11
13047;BME280;6590;42.660;27.712;2022-07-29T12:30:14;71580.03;;;31.30;46.06
13047;BME280;6590;42.660;27.712;2022-07-29T12:32:44;71577.03;;;31.27;46.16
13047;BME280;6590;42.660;27.712;2022-07-29T12:35:14;71561.06;;;31.21;47.08
13047;BME280;6590;42.660;27.712;2022-07-29T12:37:43;71571.50;;;31.20;47.71
13047;BME280;6590;42.660;27.712;2022-07-29T12:40:12;71576.84;;;31.25;48.57
13047;BME280;6590;42.660;27.712;2022-07-29T12:42:40;71578.84;;;31.29;49.31
13047;BME280;6590;42.660;27.712;2022-07-29T12:45:09;71591.88;;;31.40;51.28
13047;BME280;6590;42.660;27.712;2022-07-29T12:47:51;71587.16;;;31.43;51.57
13047;BME280;6590;42.660;27.712;2022-07-29T12:50:18;71591.09;;;31.44;49.24
13047;BME280;6590;42.660;27.712;2022-07-29T12:52:46;71601.38;;;31.48;50.80
13047;BME280;6590;42.660;27.712;2022-07-29T12:55:13;71619.16;;;31.63;51.25
13047;BME280;6590;42.660;27.712;2022-07-29T12:57:46;71626.91;;;31.76;56.91
13047;BME280;6590;42.660;27.712;2022-07-29T13:00:16;71645.09;;;31.89;59.42
13047;BME280;6590;42.660;27.712;2022-07-29T13:02:43;71645.69;;;31.89;53.40
13047;BME280;6590;42.660;27.712;2022-07-29T13:05:11;71665.84;;;31.99;58.67
13047;BME280;6590;42.660;27.712;2022-07-29T13:07:38;71657.75;;;32.02;53.93
13047;BME280;6590;42.660;27.712;2022-07-29T13:10:13;71679.69;;;32.13;55.26
13047;BME280;6590;42.660;27.712;2022-07-29T13:13:01;71670.19;;;32.05;58.65
13047;BME280;6590;42.660;27.712;2022-07-29T13:15:30;71660.09;;;31.97;55.41
13047;BME280;6590;42.660;27.712;2022-07-29T13:17:57;71660.09;;;31.97;60.16
13047;BME280;6590;42.660;27.712;2022-07-29T13:20:26;71637.59;;;31.85;58.30
13047;BME280;6590;42.660;27.712;2022-07-29T13:22:55;71645.69;;;31.89;62.66